sensor_id;sensor_type;location;lat;lon;timestamp;pressure;altitude;pressure_sealevel;temperature
29423;BMP180;16399;51.686;8.684;2022-08-05T00:02:43;99743.00;;;21.70
29423;BMP180;16399;51.686;8.684;2022-08-05T00:05:46;99727.00;;;21.70
29423;BMP180;16399;51.686;8.684;2022-08-05T00:08:48;99718.00;;;21.70
29423;BMP180;16399;51.686;8.684;2022-08-05T00:11:50;99717.00;;;21.70
29423;BMP180;16399;51.686;8.684;2022-08-05T00:14:52;99718.00;;;21.70
29423;BMP180;16399;51.686;8.684;2022-08-05T00:17:55;99712.00;;;21.70
29423;BMP180;16399;51.686;8.684;2022-08-05T00:20:57;99708.00;;;21.80
29423;BMP180;16399;51.686;8.684;2022-08-05T00:24:00;99705.00;;;21.80
29423;BMP180;16399;51.686;8.684;2022-08-05T00:27:02;99698.00;;;21.80
29423;BMP180;16399;51.686;8.684;2022-08-05T00:30:05;99691.00;;;21.70
29423;BMP180;16399;51.686;8.684;2022-08-05T00:33:08;99699.00;;;21.80
29423;BMP180;16399;51.686;8.684;2022-08-05T00:36:10;99693.00;;;21.80
29423;BMP180;16399;51.686;8.684;2022-08-05T00:39:12;99678.00;;;21.70
29423;BMP180;16399;51.686;8.684;2022-08-05T00:42:15;99685.00;;;21.70
29423;BMP180;16399;51.686;8.684;2022-08-05T00:45:18;99687.00;;;21.60
29423;BMP180;16399;51.686;8.684;2022-08-05T00:48:22;99676.00;;;21.50
29423;BMP180;16399;51.686;8.684;2022-08-05T00:51:25;99691.00;;;21.40
29423;BMP180;16399;51.686;8.684;2022-08-05T00:54:27;99704.00;;;21.30
29423;BMP180;16399;51.686;8.684;2022-08-05T00:57:29;99721.00;;;21.30
29423;BMP180;16399;51.686;8.684;2022-08-05T01:00:31;99768.00;;;21.20
29423;BMP180;16399;51.686;8.684;2022-08-05T01:03:34;99698.00;;;21.10
29423;BMP180;16399;51.686;8.684;2022-08-05T01:06:36;99739.00;;;21.10
29423;BMP180;16399;51.686;8.684;2022-08-05T01:09:38;99752.00;;;21.00
29423;BMP180;16399;51.686;8.684;2022-08-05T01:12:46;99711.00;;;20.80
29423;BMP180;16399;51.686;8.684;2022-08-05T01:15:52;99632.00;;;20.50
29423;BMP180;16399;51.686;8.684;2022-08-05T01:19:09;99650.00;;;20.20
29423;BMP180;16399;51.686;8.684;2022-08-05T01:22:37;99664.00;;;19.90
29423;BMP180;16399;51.686;8.684;2022-08-05T01:25:42;99647.00;;;19.50
29423;BMP180;16399;51.686;8.684;2022-08-05T01:28:45;99638.00;;;19.40
29423;BMP180;16399;51.686;8.684;2022-08-05T01:31:53;99623.00;;;19.30
29423;BMP180;16399;51.686;8.684;2022-08-05T01:35:04;99614.00;;;19.20
29423;BMP180;16399;51.686;8.684;2022-08-05T01:38:02;99593.00;;;19.10
29423;BMP180;16399;51.686;8.684;2022-08-05T01:41:06;99603.00;;;19.10
29423;BMP180;16399;51.686;8.684;2022-08-05T01:44:10;99581.00;;;19.10
29423;BMP180;16399;51.686;8.684;2022-08-05T01:47:16;99576.00;;;19.10
29423;BMP180;16399;51.686;8.684;2022-08-05T01:50:25;99595.00;;;19.10
29423;BMP180;16399;51.686;8.684;2022-08-05T01:53:28;99589.00;;;19.20
29423;BMP180;16399;51.686;8.684;2022-08-05T01:56:36;99594.00;;;19.20
29423;BMP180;16399;51.686;8.684;2022-08-05T01:59:39;99612.00;;;19.20
29423;BMP180;16399;51.686;8.684;2022-08-05T02:03:03;99627.00;;;19.20
29423;BMP180;16399;51.686;8.684;2022-08-05T02:05:49;99633.00;;;19.20
29423;BMP180;16399;51.686;8.684;2022-08-05T02:08:53;99630.00;;;19.30
29423;BMP180;16399;51.686;8.684;2022-08-05T02:12:07;99614.00;;;19.30
29423;BMP180;16399;51.686;8.684;2022-08-05T02:15:16;99611.00;;;19.30
29423;BMP180;16399;51.686;8.684;2022-08-05T02:18:29;99593.00;;;19.30
29423;BMP180;16399;51.686;8.684;2022-08-05T02:21:45;99586.00;;;19.30
29423;BMP180;16399;51.686;8.684;2022-08-05T02:24:52;99585.00;;;19.30
29423;BMP180;16399;51.686;8.684;2022-08-05T02:27:56;99576.00;;;19.20
29423;BMP180;16399;51.686;8.684;2022-08-05T02:31:07;99568.00;;;19.20
29423;BMP180;16399;51.686;8.684;2022-08-05T02:34:10;99564.00;;;19.20
29423;BMP180;16399;51.686;8.684;2022-08-05T02:37:13;99568.00;;;19.20
29423;BMP180;16399;51.686;8.684;2022-08-05T02:40:17;99571.00;;;19.20
29423;BMP180;16399;51.686;8.684;2022-08-05T02:43:21;99568.00;;;19.20
29423;BMP180;16399;51.686;8.684;2022-08-05T02:46:25;99572.00;;;19.20
29423;BMP180;16399;51.686;8.684;2022-08-05T02:49:34;99581.00;;;19.20
29423;BMP180;16399;51.686;8.684;2022-08-05T02:52:37;99571.00;;;19.20
29423;BMP180;16399;51.686;8.684;2022-08-05T02:55:39;99574.00;;;19.20
29423;BMP180;16399;51.686;8.684;2022-08-05T02:58:43;99573.00;;;19.20
29423;BMP180;16399;51.686;8.684;2022-08-05T03:01:47;99573.00;;;19.20
29423;BMP180;16399;51.686;8.684;2022-08-05T03:04:53;99571.00;;;19.20
29423;BMP180;16399;51.686;8.684;2022-08-05T03:07:56;99565.00;;;19.20
29423;BMP180;16399;51.686;8.684;2022-08-05T03:10:58;99568.00;;;19.20
29423;BMP180;16399;51.686;8.684;2022-08-05T03:14:00;99561.00;;;19.20
29423;BMP180;16399;51.686;8.684;2022-08-05T03:17:03;99574.00;;;19.10
29423;BMP180;16399;51.686;8.684;2022-08-05T03:20:05;99593.00;;;19.10
29423;BMP180;16399;51.686;8.684;2022-08-05T03:23:09;99592.00;;;19.00
29423;BMP180;16399;51.686;8.684;2022-08-05T03:26:12;99602.00;;;18.90
29423;BMP180;16399;51.686;8.684;2022-08-05T03:29:15;99622.00;;;18.90
29423;BMP180;16399;51.686;8.684;2022-08-05T03:32:18;99618.00;;;18.90
29423;BMP180;16399;51.686;8.684;2022-08-05T03:35:21;99623.00;;;18.90
29423;BMP180;16399;51.686;8.684;2022-08-05T03:38:25;99636.00;;;18.90
29423;BMP180;16399;51.686;8.684;2022-08-05T03:41:27;99639.00;;;18.90
29423;BMP180;16399;51.686;8.684;2022-08-05T03:44:29;99643.00;;;18.90
29423;BMP180;16399;51.686;8.684;2022-08-05T03:47:32;99664.00;;;18.90
29423;BMP180;16399;51.686;8.684;2022-08-05T03:50:57;99666.00;;;18.80
29423;BMP180;16399;51.686;8.684;2022-08-05T03:53:58;99688.00;;;18.80
29423;BMP180;16399;51.686;8.684;2022-08-05T03:57:02;99684.00;;;18.80
29423;BMP180;16399;51.686;8.684;2022-08-05T04:00:05;99663.00;;;18.80
29423;BMP180;16399;51.686;8.684;2022-08-05T04:03:09;99679.00;;;18.80
29423;BMP180;16399;51.686;8.684;2022-08-05T04:06:13;99669.00;;;18.80
29423;BMP180;16399;51.686;8.684;2022-08-05T04:09:17;99663.00;;;18.80
29423;BMP180;16399;51.686;8.684;2022-08-05T04:12:19;99673.00;;;18.80
29423;BMP180;16399;51.686;8.684;2022-08-05T04:15:22;99675.00;;;18.80
29423;BMP180;16399;51.686;8.684;2022-08-05T04:18:25;99694.00;;;18.90
29423;BMP180;16399;51.686;8.684;2022-08-05T04:21:28;99699.00;;;18.90
29423;BMP180;16399;51.686;8.684;2022-08-05T04:24:30;99702.00;;;18.90
29423;BMP180;16399;51.686;8.684;2022-08-05T04:27:32;99690.00;;;18.90
29423;BMP180;16399;51.686;8.684;2022-08-05T04:30:35;99702.00;;;18.90
29423;BMP180;16399;51.686;8.684;2022-08-05T04:33:37;99703.00;;;18.90
29423;BMP180;16399;51.686;8.684;2022-08-05T04:36:39;99731.00;;;18.90
29423;BMP180;16399;51.686;8.684;2022-08-05T04:39:41;99732.00;;;18.90
29423;BMP180;16399;51.686;8.684;2022-08-05T04:42:44;99742.00;;;18.90
29423;BMP180;16399;51.686;8.684;2022-08-05T04:45:46;99759.00;;;18.90
29423;BMP180;16399;51.686;8.684;2022-08-05T04:48:48;99752.00;;;18.90
29423;BMP180;16399;51.686;8.684;2022-08-05T04:51:50;99775.00;;;18.80
29423;BMP180;16399;51.686;8.684;2022-08-05T04:54:53;99771.00;;;18.60
29423;BMP180;16399;51.686;8.684;2022-08-05T04:57:55;99753.00;;;18.50
29423;BMP180;16399;51.686;8.684;2022-08-05T05:00:57;99739.00;;;18.50
29423;BMP180;16399;51.686;8.684;2022-08-05T05:04:00;99714.00;;;18.40
29423;BMP180;16399;51.686;8.684;2022-08-05T05:07:02;99679.00;;;18.20
29423;BMP180;16399;51.686;8.684;2022-08-05T05:10:05;99663.00;;;18.10
29423;BMP180;16399;51.686;8.684;2022-08-05T05:13:08;99642.00;;;18.00
29423;BMP180;16399;51.686;8.684;2022-08-05T05:16:11;99650.00;;;18.00
29423;BMP180;16399;51.686;8.684;2022-08-05T05:19:13;99648.00;;;18.00
29423;BMP180;16399;51.686;8.684;2022-08-05T05:22:16;99659.00;;;18.00
29423;BMP180;16399;51.686;8.684;2022-08-05T05:25:18;99669.00;;;18.00
29423;BMP180;16399;51.686;8.684;2022-08-05T05:28:20;99676.00;;;18.00
29423;BMP180;16399;51.686;8.684;2022-08-05T05:31:22;99675.00;;;18.00
29423;BMP180;16399;51.686;8.684;2022-08-05T05:34:25;99673.00;;;18.00
29423;BMP180;16399;51.686;8.684;2022-08-05T05:37:27;99678.00;;;17.90
29423;BMP180;16399;51.686;8.684;2022-08-05T05:40:30;99673.00;;;17.90
29423;BMP180;16399;51.686;8.684;2022-08-05T05:43:32;99668.00;;;17.90
29423;BMP180;16399;51.686;8.684;2022-08-05T05:46:35;99673.00;;;17.90
29423;BMP180;16399;51.686;8.684;2022-08-05T05:49:37;99658.00;;;17.90
29423;BMP180;16399;51.686;8.684;2022-08-05T05:52:40;99652.00;;;17.90
29423;BMP180;16399;51.686;8.684;2022-08-05T05:55:42;99639.00;;;17.90
29423;BMP180;16399;51.686;8.684;2022-08-05T05:58:47;99643.00;;;17.90
29423;BMP180;16399;51.686;8.684;2022-08-05T06:01:49;99624.00;;;18.00
29423;BMP180;16399;51.686;8.684;2022-08-05T06:04:52;99624.00;;;18.00
29423;BMP180;16399;51.686;8.684;2022-08-05T06:07:54;99640.00;;;18.00
29423;BMP180;16399;51.686;8.684;2022-08-05T06:10:56;99648.00;;;18.10
29423;BMP180;16399;51.686;8.684;2022-08-05T06:14:00;99660.00;;;18.10
29423;BMP180;16399;51.686;8.684;2022-08-05T06:17:02;99656.00;;;18.10
29423;BMP180;16399;51.686;8.684;2022-08-05T06:20:05;99644.00;;;18.20
29423;BMP180;16399;51.686;8.684;2022-08-05T06:23:07;99648.00;;;18.30
29423;BMP180;16399;51.686;8.684;2022-08-05T06:26:10;99658.00;;;18.30
29423;BMP180;16399;51.686;8.684;2022-08-05T06:29:12;99648.00;;;18.40
29423;BMP180;16399;51.686;8.684;2022-08-05T06:32:15;99637.00;;;18.40
29423;BMP180;16399;51.686;8.684;2022-08-05T06:35:18;99633.00;;;18.50
29423;BMP180;16399;51.686;8.684;2022-08-05T06:38:20;99634.00;;;18.50
29423;BMP180;16399;51.686;8.684;2022-08-05T06:41:23;99648.00;;;18.60
29423;BMP180;16399;51.686;8.684;2022-08-05T06:44:26;99664.00;;;18.60
29423;BMP180;16399;51.686;8.684;2022-08-05T06:47:28;99686.00;;;18.60
29423;BMP180;16399;51.686;8.684;2022-08-05T06:50:30;99674.00;;;18.50
29423;BMP180;16399;51.686;8.684;2022-08-05T06:53:33;99663.00;;;18.50
29423;BMP180;16399;51.686;8.684;2022-08-05T06:56:36;99656.00;;;18.40
29423;BMP180;16399;51.686;8.684;2022-08-05T06:59:38;99647.00;;;18.30
29423;BMP180;16399;51.686;8.684;2022-08-05T07:02:47;99674.00;;;18.30
29423;BMP180;16399;51.686;8.684;2022-08-05T07:05:46;99685.00;;;18.30
29423;BMP180;16399;51.686;8.684;2022-08-05T07:08:48;99695.00;;;18.30
29423;BMP180;16399;51.686;8.684;2022-08-05T07:11:51;99682.00;;;18.30
29423;BMP180;16399;51.686;8.684;2022-08-05T07:14:55;99683.00;;;18.30
29423;BMP180;16399;51.686;8.684;2022-08-05T07:18:15;99670.00;;;18.40
29423;BMP180;16399;51.686;8.684;2022-08-05T07:21:18;99686.00;;;18.40
29423;BMP180;16399;51.686;8.684;2022-08-05T07:24:20;99694.00;;;18.40
29423;BMP180;16399;51.686;8.684;2022-08-05T07:27:23;99680.00;;;18.50
29423;BMP180;16399;51.686;8.684;2022-08-05T07:30:25;99666.00;;;18.50
29423;BMP180;16399;51.686;8.684;2022-08-05T07:33:27;99673.00;;;18.60
29423;BMP180;16399;51.686;8.684;2022-08-05T07:36:30;99670.00;;;18.80
29423;BMP180;16399;51.686;8.684;2022-08-05T07:39:33;99675.00;;;18.90
29423;BMP180;16399;51.686;8.684;2022-08-05T07:42:35;99677.00;;;19.00
29423;BMP180;16399;51.686;8.684;2022-08-05T07:45:38;99682.00;;;19.10
29423;BMP180;16399;51.686;8.684;2022-08-05T07:48:40;99688.00;;;19.10
29423;BMP180;16399;51.686;8.684;2022-08-05T07:51:42;99696.00;;;19.20
29423;BMP180;16399;51.686;8.684;2022-08-05T07:54:45;99694.00;;;19.30
29423;BMP180;16399;51.686;8.684;2022-08-05T07:57:47;99704.00;;;19.30
29423;BMP180;16399;51.686;8.684;2022-08-05T08:00:50;99704.00;;;19.30
29423;BMP180;16399;51.686;8.684;2022-08-05T08:03:53;99708.00;;;19.30
29423;BMP180;16399;51.686;8.684;2022-08-05T08:06:55;99711.00;;;19.40
29423;BMP180;16399;51.686;8.684;2022-08-05T08:09:59;99703.00;;;19.40
29423;BMP180;16399;51.686;8.684;2022-08-05T08:13:01;99713.00;;;19.40
29423;BMP180;16399;51.686;8.684;2022-08-05T08:16:04;99713.00;;;19.50
29423;BMP180;16399;51.686;8.684;2022-08-05T08:19:06;99714.00;;;19.50
29423;BMP180;16399;51.686;8.684;2022-08-05T08:22:09;99710.00;;;19.50
29423;BMP180;16399;51.686;8.684;2022-08-05T08:25:11;99714.00;;;19.50
29423;BMP180;16399;51.686;8.684;2022-08-05T08:28:13;99736.00;;;19.50
29423;BMP180;16399;51.686;8.684;2022-08-05T08:31:16;99735.00;;;19.50
29423;BMP180;16399;51.686;8.684;2022-08-05T08:34:20;99739.00;;;19.50
29423;BMP180;16399;51.686;8.684;2022-08-05T08:37:22;99743.00;;;19.50
29423;BMP180;16399;51.686;8.684;2022-08-05T08:40:25;99747.00;;;19.50
29423;BMP180;16399;51.686;8.684;2022-08-05T08:43:27;99743.00;;;19.40
29423;BMP180;16399;51.686;8.684;2022-08-05T08:46:31;99748.00;;;19.40
29423;BMP180;16399;51.686;8.684;2022-08-05T08:49:34;99756.00;;;19.40
29423;BMP180;16399;51.686;8.684;2022-08-05T08:52:37;99762.00;;;19.30
29423;BMP180;16399;51.686;8.684;2022-08-05T08:55:42;99763.00;;;19.30
29423;BMP180;16399;51.686;8.684;2022-08-05T08:58:44;99760.00;;;19.30
29423;BMP180;16399;51.686;8.684;2022-08-05T09:01:47;99755.00;;;19.30
29423;BMP180;16399;51.686;8.684;2022-08-05T09:04:49;99771.00;;;19.30
29423;BMP180;16399;51.686;8.684;2022-08-05T09:07:52;99779.00;;;19.30
29423;BMP180;16399;51.686;8.684;2022-08-05T09:10:55;99782.00;;;19.20
29423;BMP180;16399;51.686;8.684;2022-08-05T09:13:57;99785.00;;;19.20
29423;BMP180;16399;51.686;8.684;2022-08-05T09:17:08;99789.00;;;19.20
29423;BMP180;16399;51.686;8.684;2022-08-05T09:20:13;99805.00;;;19.20
29423;BMP180;16399;51.686;8.684;2022-08-05T09:23:17;99809.00;;;19.10
29423;BMP180;16399;51.686;8.684;2022-08-05T09:26:21;99818.00;;;19.00
29423;BMP180;16399;51.686;8.684;2022-08-05T09:29:43;99813.00;;;18.90
29423;BMP180;16399;51.686;8.684;2022-08-05T09:32:50;99802.00;;;18.80
29423;BMP180;16399;51.686;8.684;2022-08-05T09:35:56;99813.00;;;18.70
29423;BMP180;16399;51.686;8.684;2022-08-05T09:39:02;99826.00;;;18.50
29423;BMP180;16399;51.686;8.684;2022-08-05T09:42:04;99828.00;;;18.40
29423;BMP180;16399;51.686;8.684;2022-08-05T09:45:08;99823.00;;;18.20
29423;BMP180;16399;51.686;8.684;2022-08-05T09:48:31;99835.00;;;18.20
29423;BMP180;16399;51.686;8.684;2022-08-05T09:51:35;99837.00;;;18.10
29423;BMP180;16399;51.686;8.684;2022-08-05T09:54:38;99835.00;;;18.10
29423;BMP180;16399;51.686;8.684;2022-08-05T09:57:42;99839.00;;;18.00
29423;BMP180;16399;51.686;8.684;2022-08-05T10:01:00;99837.00;;;17.90
29423;BMP180;16399;51.686;8.684;2022-08-05T10:04:06;99850.00;;;17.90
29423;BMP180;16399;51.686;8.684;2022-08-05T10:07:09;99850.00;;;17.90
29423;BMP180;16399;51.686;8.684;2022-08-05T10:10:11;99854.00;;;17.80
29423;BMP180;16399;51.686;8.684;2022-08-05T10:13:25;99867.00;;;17.80
29423;BMP180;16399;51.686;8.684;2022-08-05T10:16:31;99884.00;;;17.70
29423;BMP180;16399;51.686;8.684;2022-08-05T10:19:33;99890.00;;;17.70
29423;BMP180;16399;51.686;8.684;2022-08-05T10:22:37;99896.00;;;17.50
29423;BMP180;16399;51.686;8.684;2022-08-05T10:25:40;99902.00;;;17.40
29423;BMP180;16399;51.686;8.684;2022-08-05T10:28:44;99899.00;;;17.40
29423;BMP180;16399;51.686;8.684;2022-08-05T10:31:46;99899.00;;;17.30
29423;BMP180;16399;51.686;8.684;2022-08-05T10:34:50;99917.00;;;17.30
29423;BMP180;16399;51.686;8.684;2022-08-05T10:37:53;99921.00;;;17.30
29423;BMP180;16399;51.686;8.684;2022-08-05T10:41:00;99923.00;;;17.30
29423;BMP180;16399;51.686;8.684;2022-08-05T10:44:06;99923.00;;;17.30
29423;BMP180;16399;51.686;8.684;2022-08-05T10:47:11;99930.00;;;17.30
29423;BMP180;16399;51.686;8.684;2022-08-05T10:50:14;99947.00;;;17.40
29423;BMP180;16399;51.686;8.684;2022-08-05T10:53:31;99950.00;;;17.40
29423;BMP180;16399;51.686;8.684;2022-08-05T10:56:27;99946.00;;;17.30
29423;BMP180;16399;51.686;8.684;2022-08-05T10:59:31;99951.00;;;17.30
29423;BMP180;16399;51.686;8.684;2022-08-05T11:02:33;99953.00;;;17.20
29423;BMP180;16399;51.686;8.684;2022-08-05T11:05:36;99956.00;;;17.20
29423;BMP180;16399;51.686;8.684;2022-08-05T11:09:09;99971.00;;;17.20
29423;BMP180;16399;51.686;8.684;2022-08-05T11:11:51;99960.00;;;17.30
29423;BMP180;16399;51.686;8.684;2022-08-05T11:15:15;99975.00;;;17.30
29423;BMP180;16399;51.686;8.684;2022-08-05T11:18:30;99989.00;;;17.30
29423;BMP180;16399;51.686;8.684;2022-08-05T11:21:34;99996.00;;;17.20
29423;BMP180;16399;51.686;8.684;2022-08-05T11:24:42;99995.00;;;17.10
29423;BMP180;16399;51.686;8.684;2022-08-05T11:27:42;99999.00;;;17.10
29423;BMP180;16399;51.686;8.684;2022-08-05T11:34:06;100012.00;;;17.20
29423;BMP180;16399;51.686;8.684;2022-08-05T11:37:08;100016.00;;;17.10
29423;BMP180;16399;51.686;8.684;2022-08-05T11:40:11;100022.00;;;17.00
29423;BMP180;16399;51.686;8.684;2022-08-05T11:43:20;100019.00;;;17.00
29423;BMP180;16399;51.686;8.684;2022-08-05T11:46:37;100021.00;;;17.00
29423;BMP180;16399;51.686;8.684;2022-08-05T11:49:40;100025.00;;;17.00
29423;BMP180;16399;51.686;8.684;2022-08-05T11:52:42;100020.00;;;17.00
29423;BMP180;16399;51.686;8.684;2022-08-05T11:55:55;100038.00;;;17.10
29423;BMP180;16399;51.686;8.684;2022-08-05T11:58:58;100042.00;;;17.20
29423;BMP180;16399;51.686;8.684;2022-08-05T12:02:07;100046.00;;;17.30
29423;BMP180;16399;51.686;8.684;2022-08-05T12:05:09;100045.00;;;17.40
29423;BMP180;16399;51.686;8.684;2022-08-05T12:08:13;100048.00;;;17.40
29423;BMP180;16399;51.686;8.684;2022-08-05T12:11:23;100037.00;;;17.50
29423;BMP180;16399;51.686;8.684;2022-08-05T12:14:37;100056.00;;;17.60
29423;BMP180;16399;51.686;8.684;2022-08-05T12:17:39;100063.00;;;17.60
29423;BMP180;16399;51.686;8.684;2022-08-05T12:20:41;100063.00;;;17.70
29423;BMP180;16399;51.686;8.684;2022-08-05T12:27:02;100075.00;;;17.90
29423;BMP180;16399;51.686;8.684;2022-08-05T12:30:06;100076.00;;;18.00
29423;BMP180;16399;51.686;8.684;2022-08-05T12:33:09;100081.00;;;18.00
29423;BMP180;16399;51.686;8.684;2022-08-05T12:36:12;100095.00;;;18.10
29423;BMP180;16399;51.686;8.684;2022-08-05T12:39:15;100096.00;;;18.10
29423;BMP180;16399;51.686;8.684;2022-08-05T12:42:19;100099.00;;;18.20
29423;BMP180;16399;51.686;8.684;2022-08-05T12:45:21;100100.00;;;18.40
29423;BMP180;16399;51.686;8.684;2022-08-05T12:48:24;100095.00;;;18.50
29423;BMP180;16399;51.686;8.684;2022-08-05T12:51:27;100102.00;;;18.60
29423;BMP180;16399;51.686;8.684;2022-08-05T12:54:31;100099.00;;;18.80
29423;BMP180;16399;51.686;8.684;2022-08-05T12:57:36;100105.00;;;18.80
29423;BMP180;16399;51.686;8.684;2022-08-05T13:00:41;100112.00;;;18.90
29423;BMP180;16399;51.686;8.684;2022-08-05T13:03:45;100119.00;;;18.90
29423;BMP180;16399;51.686;8.684;2022-08-05T13:06:48;100114.00;;;18.90
29423;BMP180;16399;51.686;8.684;2022-08-05T13:09:53;100122.00;;;18.80
29423;BMP180;16399;51.686;8.684;2022-08-05T13:12:56;100113.00;;;18.80
29423;BMP180;16399;51.686;8.684;2022-08-05T13:15:58;100116.00;;;18.70
29423;BMP180;16399;51.686;8.684;2022-08-05T13:19:01;100128.00;;;18.70
29423;BMP180;16399;51.686;8.684;2022-08-05T13:22:04;100118.00;;;18.70
29423;BMP180;16399;51.686;8.684;2022-08-05T13:25:09;100115.00;;;18.70
29423;BMP180;16399;51.686;8.684;2022-08-05T13:28:12;100124.00;;;18.90
29423;BMP180;16399;51.686;8.684;2022-08-05T13:31:14;100128.00;;;19.10
29423;BMP180;16399;51.686;8.684;2022-08-05T13:34:17;100132.00;;;19.30
29423;BMP180;16399;51.686;8.684;2022-08-05T13:37:22;100144.00;;;19.50
29423;BMP180;16399;51.686;8.684;2022-08-05T13:40:27;100142.00;;;19.60
29423;BMP180;16399;51.686;8.684;2022-08-05T13:43:29;100140.00;;;19.80
29423;BMP180;16399;51.686;8.684;2022-08-05T13:46:32;100133.00;;;19.80
29423;BMP180;16399;51.686;8.684;2022-08-05T13:49:34;100147.00;;;19.90
29423;BMP180;16399;51.686;8.684;2022-08-05T13:52:39;100144.00;;;20.00
29423;BMP180;16399;51.686;8.684;2022-08-05T13:55:43;100145.00;;;20.10
29423;BMP180;16399;51.686;8.684;2022-08-05T13:58:48;100145.00;;;20.20
29423;BMP180;16399;51.686;8.684;2022-08-05T14:01:51;100145.00;;;20.30
29423;BMP180;16399;51.686;8.684;2022-08-05T14:04:56;100134.00;;;20.50
29423;BMP180;16399;51.686;8.684;2022-08-05T14:08:18;100153.00;;;20.60
29423;BMP180;16399;51.686;8.684;2022-08-05T14:11:24;100153.00;;;20.60
29423;BMP180;16399;51.686;8.684;2022-08-05T14:14:31;100159.00;;;20.50
29423;BMP180;16399;51.686;8.684;2022-08-05T14:17:32;100154.00;;;20.50
29423;BMP180;16399;51.686;8.684;2022-08-05T14:20:36;100159.00;;;20.50
29423;BMP180;16399;51.686;8.684;2022-08-05T14:23:38;100171.00;;;20.50
29423;BMP180;16399;51.686;8.684;2022-08-05T14:26:44;100172.00;;;20.60
29423;BMP180;16399;51.686;8.684;2022-08-05T14:29:46;100176.00;;;20.80
29423;BMP180;16399;51.686;8.684;2022-08-05T14:32:48;100171.00;;;20.80
29423;BMP180;16399;51.686;8.684;2022-08-05T14:35:51;100171.00;;;20.90
29423;BMP180;16399;51.686;8.684;2022-08-05T14:38:57;100171.00;;;20.90
29423;BMP180;16399;51.686;8.684;2022-08-05T14:41:59;100170.00;;;20.90
29423;BMP180;16399;51.686;8.684;2022-08-05T14:45:07;100180.00;;;20.80
29423;BMP180;16399;51.686;8.684;2022-08-05T14:48:06;100178.00;;;20.80
29423;BMP180;16399;51.686;8.684;2022-08-05T14:51:08;100177.00;;;20.70
29423;BMP180;16399;51.686;8.684;2022-08-05T14:54:11;100176.00;;;20.60
29423;BMP180;16399;51.686;8.684;2022-08-05T14:57:13;100182.00;;;20.50
29423;BMP180;16399;51.686;8.684;2022-08-05T15:00:17;100183.00;;;20.50
29423;BMP180;16399;51.686;8.684;2022-08-05T15:03:21;100183.00;;;20.50
29423;BMP180;16399;51.686;8.684;2022-08-05T15:06:24;100183.00;;;20.50
29423;BMP180;16399;51.686;8.684;2022-08-05T15:09:28;100178.00;;;20.50
29423;BMP180;16399;51.686;8.684;2022-08-05T15:12:33;100180.00;;;20.50
29423;BMP180;16399;51.686;8.684;2022-08-05T15:15:36;100178.00;;;20.50
29423;BMP180;16399;51.686;8.684;2022-08-05T15:18:38;100176.00;;;20.50
29423;BMP180;16399;51.686;8.684;2022-08-05T15:21:45;100182.00;;;20.50
29423;BMP180;16399;51.686;8.684;2022-08-05T15:24:48;100175.00;;;20.50
29423;BMP180;16399;51.686;8.684;2022-08-05T15:27:53;100179.00;;;20.50
29423;BMP180;16399;51.686;8.684;2022-08-05T15:30:56;100186.00;;;20.50
29423;BMP180;16399;51.686;8.684;2022-08-05T15:33:58;100184.00;;;20.60
29423;BMP180;16399;51.686;8.684;2022-08-05T15:37:01;100178.00;;;20.50
29423;BMP180;16399;51.686;8.684;2022-08-05T15:40:03;100180.00;;;20.60
29423;BMP180;16399;51.686;8.684;2022-08-05T15:43:07;100180.00;;;20.50
29423;BMP180;16399;51.686;8.684;2022-08-05T15:46:09;100171.00;;;20.50
29423;BMP180;16399;51.686;8.684;2022-08-05T15:49:12;100179.00;;;20.50
29423;BMP180;16399;51.686;8.684;2022-08-05T15:52:14;100180.00;;;20.50
29423;BMP180;16399;51.686;8.684;2022-08-05T15:55:16;100187.00;;;20.50
29423;BMP180;16399;51.686;8.684;2022-08-05T15:58:19;100195.00;;;20.50
29423;BMP180;16399;51.686;8.684;2022-08-05T16:01:22;100186.00;;;20.50
29423;BMP180;16399;51.686;8.684;2022-08-05T16:04:25;100185.00;;;20.50
29423;BMP180;16399;51.686;8.684;2022-08-05T16:07:27;100188.00;;;20.50
29423;BMP180;16399;51.686;8.684;2022-08-05T16:10:30;100191.00;;;20.50
29423;BMP180;16399;51.686;8.684;2022-08-05T16:13:32;100189.00;;;20.50
29423;BMP180;16399;51.686;8.684;2022-08-05T16:16:34;100192.00;;;20.50
29423;BMP180;16399;51.686;8.684;2022-08-05T16:19:42;100184.00;;;20.50
29423;BMP180;16399;51.686;8.684;2022-08-05T16:22:47;100179.00;;;20.50
29423;BMP180;16399;51.686;8.684;2022-08-05T16:25:50;100178.00;;;20.70
29423;BMP180;16399;51.686;8.684;2022-08-05T16:28:54;100177.00;;;20.80
29423;BMP180;16399;51.686;8.684;2022-08-05T16:31:57;100193.00;;;20.90
29423;BMP180;16399;51.686;8.684;2022-08-05T16:34:59;100193.00;;;21.00
29423;BMP180;16399;51.686;8.684;2022-08-05T16:38:02;100197.00;;;20.90
29423;BMP180;16399;51.686;8.684;2022-08-05T16:41:05;100193.00;;;20.80
29423;BMP180;16399;51.686;8.684;2022-08-05T16:44:09;100200.00;;;20.70
29423;BMP180;16399;51.686;8.684;2022-08-05T16:47:11;100202.00;;;20.70
29423;BMP180;16399;51.686;8.684;2022-08-05T16:50:14;100207.00;;;20.60
29423;BMP180;16399;51.686;8.684;2022-08-05T16:53:20;100200.00;;;20.60
29423;BMP180;16399;51.686;8.684;2022-08-05T16:56:23;100200.00;;;20.60
29423;BMP180;16399;51.686;8.684;2022-08-05T16:59:26;100197.00;;;20.60
29423;BMP180;16399;51.686;8.684;2022-08-05T17:02:28;100202.00;;;20.70
29423;BMP180;16399;51.686;8.684;2022-08-05T17:05:34;100202.00;;;20.70
29423;BMP180;16399;51.686;8.684;2022-08-05T17:08:38;100211.00;;;20.70
29423;BMP180;16399;51.686;8.684;2022-08-05T17:11:43;100217.00;;;20.70
29423;BMP180;16399;51.686;8.684;2022-08-05T17:14:53;100221.00;;;20.70
29423;BMP180;16399;51.686;8.684;2022-08-05T17:17:52;100215.00;;;20.60
29423;BMP180;16399;51.686;8.684;2022-08-05T17:20:54;100224.00;;;20.60
29423;BMP180;16399;51.686;8.684;2022-08-05T17:23:57;100225.00;;;20.60
29423;BMP180;16399;51.686;8.684;2022-08-05T17:26:59;100226.00;;;20.50
29423;BMP180;16399;51.686;8.684;2022-08-05T17:30:04;100225.00;;;20.50
29423;BMP180;16399;51.686;8.684;2022-08-05T17:33:06;100221.00;;;20.60
29423;BMP180;16399;51.686;8.684;2022-08-05T17:36:09;100236.00;;;20.60
29423;BMP180;16399;51.686;8.684;2022-08-05T17:39:13;100241.00;;;20.60
29423;BMP180;16399;51.686;8.684;2022-08-05T17:42:16;100242.00;;;20.60